Lüsse Airport EDOJ

Flugplatz Daten

Name: Lüsse Airport

Ident: EDOJ

Lat: 52,14110947

Long: 12,66472244

Platzhöhe: 217 ft

IataCode:

City: Lüsse

Metar

2022/01/12 01:30
RJTT 120130Z 36011KT 9999 FEW030 07/M05 Q1001 NOSIG RMK 1CU030 A2958 MOD TURB OBS AT 0120Z OVER EDOJO BTN 8000FT AND 12000FT IN CMB BY B738

Taf

Gewünschte Webcam nicht vorhanden? Dann fügen Sie eine hinzu. Sie wird dann so schnell wie möglich freigeschaltet
Url: Title: